createdAt,value
2023-05-09T00:02:46.248Z,11.57
2023-05-09T00:05:42.177Z,9.63
2023-05-09T00:08:41.890Z,12.27
2023-05-09T00:11:47.988Z,10.87
2023-05-09T00:14:47.912Z,11.70
2023-05-09T00:17:58.581Z,10.63
2023-05-09T00:20:47.764Z,9.23
2023-05-09T00:24:03.449Z,10.50
2023-05-09T00:27:11.873Z,10.50
2023-05-09T00:30:10.216Z,10.80
2023-05-09T00:33:00.506Z,13.77
2023-05-09T00:35:50.495Z,9.73
2023-05-09T00:38:49.505Z,11.97
2023-05-09T00:41:46.402Z,10.37
2023-05-09T00:44:44.951Z,9.83
2023-05-09T00:47:39.933Z,11.10
2023-05-09T00:50:38.613Z,11.47
2023-05-09T00:53:36.137Z,11.17
2023-05-09T00:56:27.163Z,14.47
2023-05-09T00:59:17.790Z,12.00
2023-05-09T01:02:32.316Z,12.97
2023-05-09T01:05:42.488Z,15.97
2023-05-09T01:08:57.953Z,14.80
2023-05-09T01:12:15.978Z,12.80
2023-05-09T01:15:19.416Z,10.87
2023-05-09T01:18:23.609Z,15.43
2023-05-09T01:21:22.334Z,10.90
2023-05-09T01:25:02.872Z,9.83
2023-05-09T01:28:20.349Z,12.83
2023-05-09T01:31:30.683Z,13.20
2023-05-09T01:34:24.745Z,11.07
2023-05-09T01:37:17.856Z,11.83
2023-05-09T01:40:18.906Z,10.77
2023-05-09T01:43:17.311Z,12.97
2023-05-09T01:46:33.918Z,14.90
2023-05-09T01:49:32.243Z,12.70
2023-05-09T01:52:35.825Z,12.67
2023-05-09T01:55:47.332Z,9.73
2023-05-09T01:58:45.753Z,10.73
2023-05-09T02:01:47.367Z,13.27
2023-05-09T02:04:52.567Z,11.73
2023-05-09T02:07:46.755Z,11.27
2023-05-09T02:10:42.185Z,10.23
2023-05-09T02:13:34.782Z,12.53
2023-05-09T02:16:28.416Z,9.73
2023-05-09T02:19:39.238Z,11.73
2023-05-09T02:22:38.730Z,14.13
2023-05-09T02:25:48.372Z,11.83
2023-05-09T02:28:55.876Z,9.07
2023-05-09T02:32:15.944Z,13.40
2023-05-09T02:35:11.704Z,15.30
2023-05-09T02:38:14.031Z,11.50
2023-05-09T02:41:19.259Z,12.03
2023-05-09T02:44:09.852Z,11.93
2023-05-09T02:47:18.667Z,11.30
2023-05-09T02:50:19.972Z,15.80
2023-05-09T02:53:11.804Z,13.37
2023-05-09T02:56:11.296Z,13.53
2023-05-09T02:59:01.651Z,14.40
2023-05-09T03:02:09.017Z,14.90
2023-05-09T03:04:58.305Z,12.57
2023-05-09T03:07:59.136Z,15.23
2023-05-09T03:11:12.139Z,13.23
2023-05-09T03:14:03.397Z,15.37
2023-05-09T03:17:00.720Z,13.03
2023-05-09T03:19:59.601Z,13.33
2023-05-09T03:23:05.130Z,14.57
2023-05-09T03:26:12.304Z,14.40
2023-05-09T03:29:06.108Z,13.90
2023-05-09T03:32:04.439Z,11.83
2023-05-09T03:34:55.204Z,14.50
2023-05-09T03:38:24.051Z,12.57
2023-05-09T03:41:31.427Z,13.00
2023-05-09T03:44:30.849Z,12.27
2023-05-09T03:47:38.181Z,11.67
2023-05-09T03:50:44.962Z,11.30
2023-05-09T03:54:02.230Z,11.53
2023-05-09T03:57:15.973Z,11.97
2023-05-09T04:00:16.984Z,13.90
2023-05-09T04:03:24.461Z,13.67
2023-05-09T04:06:14.759Z,16.33
2023-05-09T04:09:30.324Z,14.10
2023-05-09T04:12:41.082Z,16.33
2023-05-09T04:15:30.587Z,14.03
2023-05-09T04:18:31.816Z,15.97
2023-05-09T04:21:23.206Z,15.50
2023-05-09T04:24:25.772Z,15.97
2023-05-09T04:27:29.558Z,14.20
2023-05-09T04:30:27.907Z,16.57
2023-05-09T04:33:19.371Z,15.10
2023-05-09T04:36:18.257Z,15.87
2023-05-09T04:39:33.033Z,14.77
2023-05-09T04:42:40.103Z,14.47
2023-05-09T04:45:41.561Z,14.10
2023-05-09T04:48:53.744Z,13.97
2023-05-09T04:51:45.846Z,14.90
2023-05-09T04:54:39.770Z,15.07
2023-05-09T04:57:32.492Z,16.30
2023-05-09T05:00:34.662Z,14.13
2023-05-09T05:03:40.123Z,13.90
2023-05-09T05:06:30.853Z,15.50
2023-05-09T05:09:32.894Z,14.07
2023-05-09T05:12:43.432Z,15.13
2023-05-09T05:15:37.334Z,13.73
2023-05-09T05:18:46.826Z,12.63
2023-05-09T05:21:53.332Z,13.60
2023-05-09T05:24:44.564Z,15.03
2023-05-09T05:27:34.286Z,13.03
2023-05-09T05:30:35.883Z,14.17
2023-05-09T05:33:27.225Z,13.73
2023-05-09T05:36:18.321Z,16.60
2023-05-09T05:39:15.130Z,15.93
2023-05-09T05:42:17.403Z,15.43
2023-05-09T05:45:09.958Z,14.47
2023-05-09T05:48:21.604Z,19.20
2023-05-09T05:51:14.873Z,18.00
2023-05-09T05:54:13.443Z,14.10
2023-05-09T05:57:18.598Z,13.63
2023-05-09T06:00:15.071Z,14.07
2023-05-09T06:03:23.390Z,14.43
2023-05-09T06:06:31.517Z,13.37
2023-05-09T06:09:34.755Z,12.50
2023-05-09T06:12:35.563Z,15.43
2023-05-09T06:15:40.730Z,16.97
2023-05-09T06:18:41.823Z,15.93
2023-05-09T06:21:41.305Z,15.80
2023-05-09T06:24:35.906Z,14.33
2023-05-09T06:27:36.111Z,13.10
2023-05-09T06:30:41.283Z,12.40
2023-05-09T06:33:48.205Z,14.40
2023-05-09T06:36:37.681Z,16.13
2023-05-09T06:39:36.666Z,16.33
2023-05-09T06:42:40.836Z,16.10
2023-05-09T06:45:32.110Z,14.67
2023-05-09T06:48:39.094Z,13.83
2023-05-09T06:51:48.392Z,15.60
2023-05-09T06:54:42.561Z,15.80
2023-05-09T06:57:33.171Z,16.87
2023-05-09T07:00:24.550Z,15.90
2023-05-09T07:03:30.883Z,15.60
2023-05-09T07:06:29.425Z,16.07
2023-05-09T07:09:41.892Z,15.30
2023-05-09T07:12:34.415Z,19.53
2023-05-09T07:15:41.152Z,16.53
2023-05-09T07:18:42.216Z,14.80
2023-05-09T07:21:30.951Z,16.50
2023-05-09T07:24:40.463Z,14.70
2023-05-09T07:27:33.589Z,14.20
2023-05-09T07:30:29.392Z,16.30
2023-05-09T07:33:28.076Z,15.20
2023-05-09T07:36:33.131Z,16.53
2023-05-09T07:39:41.276Z,13.43
2023-05-09T07:42:52.282Z,15.00
2023-05-09T07:45:47.203Z,17.13
2023-05-09T07:48:38.536Z,16.07
2023-05-09T07:51:29.291Z,13.43
2023-05-09T07:54:25.861Z,15.77
2023-05-09T07:57:24.917Z,14.17
2023-05-09T08:00:26.907Z,14.40
2023-05-09T08:03:26.385Z,15.83
2023-05-09T08:06:36.814Z,15.27
2023-05-09T08:09:31.889Z,18.40
2023-05-09T08:12:40.147Z,15.13
2023-05-09T08:15:47.401Z,17.53
2023-05-09T08:18:39.749Z,17.63
2023-05-09T08:21:36.927Z,16.33
2023-05-09T08:24:37.327Z,16.47
2023-05-09T08:27:28.680Z,15.10
2023-05-09T08:30:26.912Z,16.67
2023-05-09T08:33:40.518Z,15.13
2023-05-09T08:36:36.848Z,15.73
2023-05-09T08:39:28.387Z,14.63
2023-05-09T08:42:26.828Z,14.47
2023-05-09T08:45:33.642Z,15.27
2023-05-09T08:48:49.023Z,14.87
2023-05-09T08:51:39.949Z,14.10
2023-05-09T08:54:31.009Z,15.40
2023-05-09T08:57:20.530Z,13.67
2023-05-09T09:00:21.387Z,14.27
2023-05-09T09:03:17.265Z,15.57
2023-05-09T09:06:26.336Z,14.30
2023-05-09T09:09:33.226Z,16.30
2023-05-09T09:12:26.473Z,14.70
2023-05-09T09:15:22.050Z,15.33
2023-05-09T09:18:27.135Z,16.20
2023-05-09T09:21:27.132Z,17.53
2023-05-09T09:24:29.888Z,16.77
2023-05-09T09:27:35.955Z,16.13
2023-05-09T09:30:36.377Z,16.53
2023-05-09T09:33:38.230Z,14.07
2023-05-09T09:36:37.127Z,13.83
2023-05-09T09:39:33.631Z,13.43
2023-05-09T09:42:44.801Z,13.83
2023-05-09T09:45:53.244Z,12.87
2023-05-09T09:48:55.581Z,14.10
2023-05-09T09:52:06.805Z,17.23
2023-05-09T09:55:02.697Z,15.07
2023-05-09T09:57:59.059Z,12.90
2023-05-09T10:00:48.134Z,12.50
2023-05-09T10:03:54.977Z,11.57
2023-05-09T10:06:57.388Z,12.10
2023-05-09T10:10:07.824Z,11.87
2023-05-09T10:13:01.141Z,10.90
2023-05-09T10:16:00.693Z,10.87
2023-05-09T10:18:51.332Z,11.77
2023-05-09T10:21:43.173Z,10.60
2023-05-09T10:24:49.770Z,13.50
2023-05-09T10:28:14.738Z,13.27
2023-05-09T10:31:14.365Z,11.33
2023-05-09T10:34:21.559Z,11.30
2023-05-09T10:37:13.037Z,9.97
2023-05-09T10:40:15.522Z,9.23
2023-05-09T10:43:13.265Z,10.67
2023-05-09T10:46:17.768Z,9.40
2023-05-09T10:49:08.709Z,9.10
2023-05-09T10:52:06.466Z,9.80
2023-05-09T10:55:06.278Z,7.83
2023-05-09T10:58:40.920Z,8.13
2023-05-09T11:01:39.230Z,10.37
2023-05-09T11:04:28.986Z,7.73
2023-05-09T11:07:37.662Z,7.20
2023-05-09T11:10:48.080Z,6.77
2023-05-09T11:13:51.180Z,6.53
2023-05-09T11:17:01.302Z,5.63
2023-05-09T11:20:07.868Z,5.07
2023-05-09T11:23:17.639Z,5.00
2023-05-09T11:26:11.628Z,7.30
2023-05-09T11:29:15.453Z,4.57
2023-05-09T11:32:13.825Z,4.67
2023-05-09T11:35:37.546Z,4.73
2023-05-09T11:38:26.780Z,6.30
2023-05-09T11:41:22.205Z,6.60
2023-05-09T11:44:32.268Z,6.37
2023-05-09T11:47:32.345Z,4.67
2023-05-09T11:50:30.433Z,4.37
2023-05-09T11:53:37.945Z,4.43
2023-05-09T11:56:35.267Z,4.37
2023-05-09T11:59:41.728Z,4.17
2023-05-09T12:02:39.178Z,4.87
2023-05-09T12:05:28.708Z,4.17
2023-05-09T12:08:28.981Z,5.07
2023-05-09T12:11:24.329Z,4.10
2023-05-09T12:14:42.330Z,4.07
2023-05-09T12:17:40.976Z,4.33
2023-05-09T12:20:47.510Z,4.33
2023-05-09T12:23:38.560Z,4.23
2023-05-09T12:26:35.484Z,8.43
2023-05-09T12:29:48.704Z,4.40
2023-05-09T12:32:41.111Z,5.17
2023-05-09T12:35:41.016Z,3.53
2023-05-09T12:38:42.070Z,3.77
2023-05-09T12:41:39.199Z,4.70
2023-05-09T12:45:00.302Z,5.43
2023-05-09T12:48:01.879Z,6.23
2023-05-09T12:50:54.398Z,6.27
2023-05-09T12:53:44.562Z,3.83
2023-05-09T12:56:41.735Z,3.90
2023-05-09T12:59:41.748Z,4.30
2023-05-09T13:02:57.634Z,4.23
2023-05-09T13:05:58.731Z,5.47
2023-05-09T13:09:00.866Z,6.43
2023-05-09T13:11:51.548Z,4.10
2023-05-09T13:14:58.508Z,3.57
2023-05-09T13:18:24.005Z,3.80
2023-05-09T13:21:15.552Z,3.83
2023-05-09T13:24:05.173Z,3.83
2023-05-09T13:27:11.362Z,3.40
2023-05-09T13:30:08.040Z,3.63
2023-05-09T13:33:26.970Z,3.30
2023-05-09T13:36:19.960Z,4.80
2023-05-09T13:39:25.139Z,4.20
2023-05-09T13:42:19.027Z,3.53
2023-05-09T13:45:15.193Z,3.60
2023-05-09T13:48:18.866Z,3.87
2023-05-09T13:51:27.779Z,3.47
2023-05-09T13:54:35.471Z,6.27
2023-05-09T13:57:46.983Z,3.57
2023-05-09T14:00:50.185Z,4.30
2023-05-09T14:03:54.524Z,3.87
2023-05-09T14:06:59.048Z,3.60
2023-05-09T14:10:11.006Z,3.90
2023-05-09T14:13:06.658Z,3.77
2023-05-09T14:15:56.265Z,3.87
2023-05-09T14:18:54.016Z,4.00
2023-05-09T14:21:43.905Z,4.53
2023-05-09T14:24:41.646Z,4.13
2023-05-09T14:27:39.808Z,4.90
2023-05-09T14:30:57.717Z,4.60
2023-05-09T14:33:55.229Z,5.33
2023-05-09T14:37:01.260Z,4.03
2023-05-09T14:39:53.812Z,3.77
2023-05-09T14:42:42.580Z,6.27
2023-05-09T14:45:51.345Z,4.47
2023-05-09T14:48:40.694Z,5.30
2023-05-09T14:51:51.702Z,6.03
2023-05-09T14:54:42.818Z,4.50
2023-05-09T14:57:50.265Z,4.30
2023-05-09T15:00:53.841Z,4.60
2023-05-09T15:03:49.650Z,6.67
2023-05-09T15:07:01.462Z,4.37
2023-05-09T15:10:15.602Z,5.50
2023-05-09T15:13:31.940Z,3.93
2023-05-09T15:16:21.619Z,5.47
2023-05-09T15:19:14.959Z,3.90
2023-05-09T15:22:34.119Z,4.53
2023-05-09T15:25:30.405Z,5.33
2023-05-09T15:28:35.682Z,10.20
2023-05-09T15:31:26.690Z,6.37
2023-05-09T15:34:24.692Z,4.37
2023-05-09T15:37:35.781Z,4.70
2023-05-09T15:40:42.624Z,7.07
2023-05-09T15:43:40.460Z,39.50
2023-05-09T15:46:33.736Z,90.63
2023-05-09T15:49:32.129Z,11.77
2023-05-09T15:52:36.080Z,21.77
2023-05-09T15:55:28.694Z,47.13
2023-05-09T15:58:18.193Z,7.33
2023-05-09T16:01:28.330Z,10.43
2023-05-09T16:04:22.696Z,7.67
2023-05-09T16:07:15.322Z,6.60
2023-05-09T16:10:22.292Z,4.63
2023-05-09T16:13:12.798Z,4.70
2023-05-09T16:16:10.833Z,6.33
2023-05-09T16:19:10.158Z,5.67
2023-05-09T16:22:05.840Z,7.07
2023-05-09T16:24:57.301Z,7.17
2023-05-09T16:27:51.089Z,5.50
2023-05-09T16:30:40.371Z,6.30
2023-05-09T16:33:30.529Z,7.40
2023-05-09T16:36:38.107Z,8.60
2023-05-09T16:39:33.042Z,10.80
2023-05-09T16:42:42.910Z,9.63
2023-05-09T16:45:53.261Z,8.10
2023-05-09T16:48:59.242Z,6.23
2023-05-09T16:51:55.097Z,7.43
2023-05-09T16:54:56.281Z,8.80
2023-05-09T16:58:04.154Z,7.87
2023-05-09T17:01:00.710Z,6.33
2023-05-09T17:03:51.005Z,6.67
2023-05-09T17:06:44.474Z,6.87
2023-05-09T17:09:49.055Z,5.77
2023-05-09T17:12:56.934Z,7.80
2023-05-09T17:15:55.121Z,5.90
2023-05-09T17:18:55.997Z,7.90
2023-05-09T17:21:50.044Z,5.57
2023-05-09T17:24:47.518Z,5.83
2023-05-09T17:27:36.980Z,7.33
2023-05-09T17:30:37.740Z,6.37
2023-05-09T17:33:43.642Z,6.77
2023-05-09T17:36:47.324Z,8.33
2023-05-09T17:39:42.859Z,5.73
2023-05-09T17:42:33.704Z,6.43
2023-05-09T17:45:39.721Z,12.03
2023-05-09T17:48:30.172Z,5.53
2023-05-09T17:51:33.245Z,6.50
2023-05-09T17:54:54.726Z,7.53
2023-05-09T17:57:55.468Z,6.17
2023-05-09T18:00:48.356Z,9.10
2023-05-09T18:03:58.265Z,10.50
2023-05-09T18:06:51.974Z,7.37
2023-05-09T18:09:51.904Z,8.40
2023-05-09T18:12:58.163Z,10.37
2023-05-09T18:16:08.209Z,6.17
2023-05-09T18:19:01.007Z,8.00
2023-05-09T18:22:23.732Z,7.07
2023-05-09T18:25:27.968Z,6.73
2023-05-09T18:28:40.194Z,7.83
2023-05-09T18:31:39.246Z,6.83
2023-05-09T18:34:34.143Z,7.30
2023-05-09T18:37:25.195Z,9.00
2023-05-09T18:40:37.564Z,7.47
2023-05-09T18:43:29.386Z,8.53
2023-05-09T18:46:28.119Z,6.50
2023-05-09T18:49:20.679Z,6.30
2023-05-09T18:52:19.324Z,5.90
2023-05-09T18:55:20.118Z,3.90
2023-05-09T18:58:24.952Z,5.03
2023-05-09T19:01:37.427Z,3.30
2023-05-09T19:04:36.595Z,2.90
2023-05-09T19:07:36.038Z,2.60
2023-05-09T19:10:36.556Z,3.30
2023-05-09T19:13:51.002Z,3.20
2023-05-09T19:16:50.295Z,5.80
2023-05-09T19:19:50.148Z,3.67
2023-05-09T19:22:41.537Z,3.37
2023-05-09T19:25:42.556Z,3.60
2023-05-09T19:28:35.567Z,3.30
2023-05-09T19:31:33.026Z,3.27
2023-05-09T19:34:25.318Z,4.20
2023-05-09T19:37:23.962Z,7.30
2023-05-09T19:40:34.309Z,4.30
2023-05-09T19:43:24.925Z,6.00
2023-05-09T19:46:23.350Z,3.43
2023-05-09T19:49:23.321Z,5.17
2023-05-09T19:52:13.908Z,5.00
2023-05-09T19:55:03.243Z,3.23
2023-05-09T19:57:53.538Z,5.47
2023-05-09T20:00:51.583Z,3.53
2023-05-09T20:03:57.140Z,3.60
2023-05-09T20:06:49.125Z,3.13
2023-05-09T20:09:45.284Z,2.53
2023-05-09T20:12:33.980Z,3.47
2023-05-09T20:15:30.845Z,5.13
2023-05-09T20:18:27.670Z,4.60
2023-05-09T20:21:36.754Z,2.53
2023-05-09T20:24:37.873Z,2.80
2023-05-09T20:27:26.994Z,6.13
2023-05-09T20:30:17.682Z,2.67
2023-05-09T20:33:19.666Z,2.63
2023-05-09T20:36:43.230Z,2.30
2023-05-09T20:39:33.091Z,5.97
2023-05-09T20:42:31.385Z,2.40
2023-05-09T20:45:35.085Z,2.50
2023-05-09T20:48:25.233Z,5.60
2023-05-09T20:51:22.374Z,3.60
2023-05-09T20:54:14.344Z,2.97
2023-05-09T20:57:10.069Z,2.73
2023-05-09T21:00:09.923Z,3.50
2023-05-09T21:03:31.620Z,2.77
2023-05-09T21:06:30.710Z,2.90
2023-05-09T21:09:46.377Z,2.60
2023-05-09T21:12:44.927Z,3.33
2023-05-09T21:15:33.750Z,2.77
2023-05-09T21:18:42.292Z,2.40
2023-05-09T21:21:33.432Z,3.70
2023-05-09T21:24:44.197Z,3.00
2023-05-09T21:27:45.617Z,3.20
2023-05-09T21:30:34.815Z,2.83
2023-05-09T21:33:34.838Z,3.20
2023-05-09T21:36:23.826Z,3.77
2023-05-09T21:39:24.501Z,4.90
2023-05-09T21:42:38.494Z,2.93
2023-05-09T21:45:38.228Z,2.83
2023-05-09T21:48:33.052Z,5.23
2023-05-09T21:51:27.646Z,2.40
2023-05-09T21:54:17.013Z,1.90
2023-05-09T21:57:15.830Z,3.40
2023-05-09T22:00:19.614Z,2.20
2023-05-09T22:03:13.281Z,2.47
2023-05-09T22:06:17.376Z,1.90
2023-05-09T22:09:09.352Z,3.03
2023-05-09T22:12:14.562Z,1.60
2023-05-09T22:15:17.278Z,2.73
2023-05-09T22:18:18.174Z,3.97
2023-05-09T22:21:23.363Z,2.90
2023-05-09T22:24:16.998Z,1.70
2023-05-09T22:27:05.599Z,4.20
2023-05-09T22:30:04.098Z,1.60
2023-05-09T22:33:13.038Z,1.97
2023-05-09T22:36:08.960Z,2.87
2023-05-09T22:39:14.755Z,1.83
2023-05-09T22:42:27.577Z,3.20
2023-05-09T22:45:26.568Z,2.40
2023-05-09T22:48:24.085Z,2.00
2023-05-09T22:51:15.390Z,2.47
2023-05-09T22:54:15.951Z,1.90
2023-05-09T22:57:04.655Z,2.73
2023-05-09T22:59:54.213Z,2.30
2023-05-09T23:02:51.847Z,2.73
2023-05-09T23:05:50.092Z,2.30
2023-05-09T23:08:39.677Z,2.20
2023-05-09T23:11:38.750Z,4.33
2023-05-09T23:14:30.168Z,3.27
2023-05-09T23:17:19.197Z,3.10
2023-05-09T23:20:26.688Z,3.97
2023-05-09T23:23:46.903Z,2.30
2023-05-09T23:26:41.157Z,2.07
2023-05-09T23:29:57.346Z,1.80
2023-05-09T23:32:47.067Z,1.53
2023-05-09T23:35:45.382Z,2.77
2023-05-09T23:38:55.333Z,2.57
2023-05-09T23:41:55.514Z,1.50
2023-05-09T23:45:02.784Z,1.37
2023-05-09T23:48:07.910Z,2.30
2023-05-09T23:51:06.202Z,1.40
2023-05-09T23:54:03.599Z,3.30
2023-05-09T23:56:57.714Z,1.60
2023-05-09T23:59:56.638Z,2.40
